createdAt,value
2022-10-23T00:02:24.000Z,12.96
2022-10-23T00:07:24.000Z,12.67
2022-10-23T00:12:25.000Z,13.31
2022-10-23T00:17:24.000Z,13.05
2022-10-23T00:22:24.000Z,13.22
2022-10-23T00:27:25.000Z,12.88
2022-10-23T00:32:24.000Z,13.26
2022-10-23T00:37:25.000Z,13.3
2022-10-23T00:42:24.000Z,13.4
2022-10-23T00:47:24.000Z,13.62
2022-10-23T00:52:25.000Z,13.5
2022-10-23T00:57:25.000Z,13.65
2022-10-23T01:02:24.000Z,14.01
2022-10-23T01:12:24.000Z,14.05
2022-10-23T01:17:24.000Z,13.95
2022-10-23T01:27:24.000Z,14.18
2022-10-23T01:32:24.000Z,13.8
2022-10-23T01:37:24.000Z,13.84
2022-10-23T01:42:24.000Z,13.9
2022-10-23T01:47:25.000Z,14.16
2022-10-23T01:52:25.000Z,14.29
2022-10-23T01:57:25.000Z,14.69
2022-10-23T02:02:25.000Z,14.48
2022-10-23T02:07:24.000Z,15.42
2022-10-23T02:12:25.000Z,15.66
2022-10-23T02:17:24.000Z,15.38
2022-10-23T02:22:24.000Z,14.95
2022-10-23T02:27:25.000Z,15.57
2022-10-23T02:32:24.000Z,15.49
2022-10-23T02:37:24.000Z,15.95
2022-10-23T02:42:25.000Z,16.66
2022-10-23T02:47:24.000Z,16.53
2022-10-23T02:57:24.000Z,17.31
2022-10-23T03:02:25.000Z,17.46
2022-10-23T03:07:24.000Z,17.72
2022-10-23T03:12:25.000Z,17.52
2022-10-23T03:17:24.000Z,17.74
2022-10-23T03:22:25.000Z,18.56
2022-10-23T03:27:25.000Z,18.01
2022-10-23T03:32:24.000Z,18.81
2022-10-23T03:37:24.000Z,19.05
2022-10-23T03:42:24.000Z,19.42
2022-10-23T03:47:24.000Z,19.4
2022-10-23T03:57:24.000Z,19.94
2022-10-23T04:02:24.000Z,20.26
2022-10-23T04:07:25.000Z,20.86
2022-10-23T04:17:25.000Z,20.58
2022-10-23T04:22:24.000Z,21
2022-10-23T04:27:24.000Z,21.14
2022-10-23T04:32:24.000Z,20.85
2022-10-23T04:37:25.000Z,21.21
2022-10-23T04:42:24.000Z,21.33
2022-10-23T04:47:24.000Z,21.04
2022-10-23T04:52:25.000Z,21.32
2022-10-23T04:57:25.000Z,21.08
2022-10-23T05:02:25.000Z,21.24
2022-10-23T05:07:24.000Z,21.02
2022-10-23T05:12:24.000Z,21.39
2022-10-23T05:17:25.000Z,20.96
2022-10-23T05:22:24.000Z,21.81
2022-10-23T05:27:24.000Z,20.66
2022-10-23T05:32:24.000Z,20.52
2022-10-23T05:37:24.000Z,20.78
2022-10-23T05:42:24.000Z,20.02
2022-10-23T05:47:25.000Z,20.06
2022-10-23T05:52:24.000Z,19.25
2022-10-23T05:57:24.000Z,19.32
2022-10-23T06:02:25.000Z,18.93
2022-10-23T06:07:24.000Z,18.21
2022-10-23T06:17:24.000Z,18.34
2022-10-23T06:22:24.000Z,17.84
2022-10-23T06:27:24.000Z,17.73
2022-10-23T06:32:24.000Z,17.73
2022-10-23T06:37:25.000Z,17.88
2022-10-23T06:42:25.000Z,17.59
2022-10-23T06:47:25.000Z,17.19
2022-10-23T06:52:24.000Z,17.13
2022-10-23T06:57:24.000Z,17.36
2022-10-23T07:02:25.000Z,17.61
2022-10-23T07:07:24.000Z,17.54
2022-10-23T07:12:24.000Z,17.49
2022-10-23T07:17:24.000Z,17.02
2022-10-23T07:22:24.000Z,17.26
2022-10-23T07:27:24.000Z,16.41
2022-10-23T07:32:25.000Z,17.61
2022-10-23T07:37:25.000Z,17.05
2022-10-23T07:42:24.000Z,16.91
2022-10-23T07:47:24.000Z,17.09
2022-10-23T07:52:24.000Z,17.7
2022-10-23T07:57:24.000Z,17.77
2022-10-23T08:02:24.000Z,17.85
2022-10-23T08:07:25.000Z,18.26
2022-10-23T08:12:25.000Z,18.21
2022-10-23T08:17:24.000Z,18.61
2022-10-23T08:22:25.000Z,18.48
2022-10-23T08:27:24.000Z,18.74
2022-10-23T08:32:24.000Z,19.22
2022-10-23T08:37:24.000Z,19.76
2022-10-23T08:42:24.000Z,19.79
2022-10-23T08:47:24.000Z,20.17
2022-10-23T08:52:24.000Z,20.23
2022-10-23T08:57:24.000Z,21.05
2022-10-23T09:02:24.000Z,21.34
2022-10-23T09:07:25.000Z,20.84
2022-10-23T09:12:24.000Z,21.73
2022-10-23T09:17:24.000Z,23.33
2022-10-23T09:22:24.000Z,23.87
2022-10-23T09:27:25.000Z,22.22
2022-10-23T09:32:25.000Z,24.98
2022-10-23T09:37:25.000Z,22.57
2022-10-23T09:42:25.000Z,22.43
2022-10-23T09:47:24.000Z,23.19
2022-10-23T09:52:24.000Z,23.16
2022-10-23T09:57:24.000Z,23.24
2022-10-23T10:02:24.000Z,23.96
2022-10-23T10:07:24.000Z,23.27
2022-10-23T10:12:25.000Z,23.14
2022-10-23T10:17:24.000Z,23.72
2022-10-23T10:22:24.000Z,25.05
2022-10-23T10:27:24.000Z,24.33
2022-10-23T10:32:25.000Z,25.13
2022-10-23T10:37:25.000Z,25.17
2022-10-23T10:42:24.000Z,23.99
2022-10-23T10:47:24.000Z,24.12
2022-10-23T10:52:25.000Z,24.43
2022-10-23T10:57:24.000Z,23.67
2022-10-23T11:02:24.000Z,24.88
2022-10-23T11:07:24.000Z,25.33
2022-10-23T11:12:24.000Z,25.03
2022-10-23T11:17:25.000Z,26.58
2022-10-23T11:22:24.000Z,25.75
2022-10-23T11:27:24.000Z,25.56
2022-10-23T11:32:24.000Z,24.65
2022-10-23T11:37:25.000Z,24.94
2022-10-23T11:42:25.000Z,25.04
2022-10-23T11:47:24.000Z,23.94
2022-10-23T11:52:24.000Z,23.64
2022-10-23T11:57:24.000Z,24.31
2022-10-23T12:02:24.000Z,24.82
2022-10-23T12:07:25.000Z,24.29
2022-10-23T12:12:25.000Z,25.23
2022-10-23T12:17:25.000Z,25.45
2022-10-23T12:22:24.000Z,25.86
2022-10-23T12:32:25.000Z,25.56
2022-10-23T12:37:24.000Z,26.12
2022-10-23T12:42:25.000Z,25.5
2022-10-23T12:47:24.000Z,25.85
2022-10-23T12:52:24.000Z,26.29
2022-10-23T12:57:24.000Z,26.19
2022-10-23T13:02:24.000Z,26.42
2022-10-23T13:07:24.000Z,26.47
2022-10-23T13:12:24.000Z,27.2
2022-10-23T13:17:25.000Z,27.67
2022-10-23T13:22:24.000Z,27.93
2022-10-23T13:27:25.000Z,27.82
2022-10-23T13:32:25.000Z,27.52
2022-10-23T13:37:24.000Z,27.6
2022-10-23T13:42:25.000Z,29.16
2022-10-23T13:47:24.000Z,29.04
2022-10-23T13:52:25.000Z,31.56
2022-10-23T13:57:24.000Z,29.88
2022-10-23T14:02:24.000Z,31.11
2022-10-23T14:07:24.000Z,31
2022-10-23T14:12:25.000Z,30.71
2022-10-23T14:17:25.000Z,31.19
2022-10-23T14:22:25.000Z,31.3
2022-10-23T14:27:24.000Z,31.6
2022-10-23T14:32:24.000Z,31.44
2022-10-23T14:37:25.000Z,33.51
2022-10-23T14:42:24.000Z,32.42
2022-10-23T14:47:24.000Z,32.67
2022-10-23T14:52:24.000Z,33.17
2022-10-23T14:57:24.000Z,34.16
2022-10-23T15:02:24.000Z,33.63
2022-10-23T15:07:24.000Z,33.22
2022-10-23T15:12:24.000Z,32.72
2022-10-23T15:17:24.000Z,33.36
2022-10-23T15:22:24.000Z,34.36
2022-10-23T15:27:24.000Z,35.92
2022-10-23T15:32:24.000Z,35.62
2022-10-23T15:37:24.000Z,34.77
2022-10-23T15:42:24.000Z,36.82
2022-10-23T15:47:25.000Z,34.92
2022-10-23T15:52:24.000Z,35.38
2022-10-23T15:57:24.000Z,36.37
2022-10-23T16:02:25.000Z,34.18
2022-10-23T16:07:24.000Z,34.18
2022-10-23T16:12:25.000Z,33.83
2022-10-23T16:17:24.000Z,34.22
2022-10-23T16:22:24.000Z,34.7
2022-10-23T16:27:24.000Z,33.3
2022-10-23T16:32:24.000Z,33.78
2022-10-23T16:37:25.000Z,33.18
2022-10-23T16:42:25.000Z,34.29
2022-10-23T16:47:24.000Z,33.4
2022-10-23T16:52:24.000Z,33.58
2022-10-23T16:57:25.000Z,32.67
2022-10-23T17:02:24.000Z,32.44
2022-10-23T17:07:24.000Z,31.93
2022-10-23T17:12:25.000Z,32.12
2022-10-23T17:17:24.000Z,31.41
2022-10-23T17:22:25.000Z,31.06
2022-10-23T17:27:25.000Z,31.24
2022-10-23T17:32:24.000Z,30.63
2022-10-23T17:37:24.000Z,29.76
2022-10-23T17:42:24.000Z,28.76
2022-10-23T17:47:25.000Z,30.15
2022-10-23T17:52:25.000Z,28.71
2022-10-23T17:57:24.000Z,28.89
2022-10-23T18:02:24.000Z,28.18
2022-10-23T18:07:25.000Z,28.91
2022-10-23T18:12:24.000Z,28.12
2022-10-23T18:17:25.000Z,28.33
2022-10-23T18:22:24.000Z,28.03
2022-10-23T18:27:24.000Z,26.99
2022-10-23T18:32:25.000Z,26.35
2022-10-23T18:37:24.000Z,26.53
2022-10-23T18:42:25.000Z,25.3
2022-10-23T18:47:24.000Z,24.46
2022-10-23T18:52:24.000Z,23.36
2022-10-23T18:57:24.000Z,23.89
2022-10-23T19:02:24.000Z,23.62
2022-10-23T19:07:24.000Z,23.17
2022-10-23T19:12:24.000Z,22.57
2022-10-23T19:17:24.000Z,22.28
2022-10-23T19:22:24.000Z,21.65
2022-10-23T19:27:25.000Z,22.65
2022-10-23T19:32:24.000Z,23.17
2022-10-23T19:37:24.000Z,22.66
2022-10-23T19:42:24.000Z,22.58
2022-10-23T19:47:24.000Z,23.77
2022-10-23T19:52:25.000Z,23.45
2022-10-23T19:57:24.000Z,24.16
2022-10-23T20:02:24.000Z,25.34
2022-10-23T20:07:24.000Z,25.48
2022-10-23T20:17:24.000Z,28.24
2022-10-23T20:22:24.000Z,27.04
2022-10-23T20:27:25.000Z,27.12
2022-10-23T20:32:24.000Z,27.7
2022-10-23T20:37:24.000Z,27.39
2022-10-23T20:42:25.000Z,29.27
2022-10-23T20:47:25.000Z,28.86
2022-10-23T20:52:24.000Z,29.57
2022-10-23T20:57:24.000Z,28.87
2022-10-23T21:02:24.000Z,29.95
2022-10-23T21:07:24.000Z,29.54
2022-10-23T21:12:25.000Z,31.04
2022-10-23T21:17:24.000Z,30.87
2022-10-23T21:22:25.000Z,29.42
2022-10-23T21:27:24.000Z,28.61
2022-10-23T21:32:25.000Z,28.42
2022-10-23T21:37:24.000Z,29.53
2022-10-23T21:42:25.000Z,28.65
2022-10-23T21:47:24.000Z,28.22
2022-10-23T21:52:25.000Z,27.77
2022-10-23T21:57:24.000Z,27.6
2022-10-23T22:02:25.000Z,24.92
2022-10-23T22:07:24.000Z,23.02
2022-10-23T22:12:25.000Z,19.03
2022-10-23T22:17:24.000Z,17.3
2022-10-23T22:22:24.000Z,15.8
2022-10-23T22:27:25.000Z,15.37
2022-10-23T22:32:24.000Z,15.02
2022-10-23T22:37:24.000Z,14.57
2022-10-23T22:42:25.000Z,15.22
2022-10-23T22:47:25.000Z,14.92
2022-10-23T22:52:24.000Z,14.71
2022-10-23T23:02:24.000Z,14.51
2022-10-23T23:07:25.000Z,14.21
2022-10-23T23:12:24.000Z,14.38
2022-10-23T23:17:24.000Z,14.63
2022-10-23T23:27:24.000Z,14.7
2022-10-23T23:32:24.000Z,15.16
2022-10-23T23:37:25.000Z,15.11
2022-10-23T23:42:24.000Z,15.36
2022-10-23T23:47:24.000Z,15.14
2022-10-23T23:52:25.000Z,15.5
2022-10-23T23:57:24.000Z,15.85
